createdAt,value
2022-10-01T00:02:19.692Z,13.14
2022-10-01T00:04:50.955Z,13.11
2022-10-01T00:07:21.110Z,13.13
2022-10-01T00:09:51.098Z,13.11
2022-10-01T00:12:20.864Z,13.11
2022-10-01T00:14:51.697Z,13.16
2022-10-01T00:17:24.965Z,13.15
2022-10-01T00:19:55.268Z,13.13
2022-10-01T00:22:25.375Z,13.13
2022-10-01T00:24:55.556Z,13.13
2022-10-01T00:27:25.548Z,13.13
2022-10-01T00:29:55.713Z,13.11
2022-10-01T00:32:28.462Z,13.14
2022-10-01T00:34:58.526Z,13.13
2022-10-01T00:37:28.700Z,13.11
2022-10-01T00:39:58.914Z,13.13
2022-10-01T00:42:29.815Z,13.12
2022-10-01T00:45:02.655Z,13.08
2022-10-01T00:47:37.488Z,13.08
2022-10-01T00:50:10.160Z,13.03
2022-10-01T00:52:42.887Z,13.00
2022-10-01T00:55:15.180Z,13.00
2022-10-01T00:57:46.382Z,13.00
2022-10-01T01:00:16.714Z,13.06
2022-10-01T01:02:49.180Z,13.02
2022-10-01T01:05:19.244Z,12.98
2022-10-01T01:07:50.908Z,13.00
2022-10-01T01:10:21.580Z,12.96
2022-10-01T01:12:58.286Z,12.91
2022-10-01T01:15:30.134Z,12.95
2022-10-01T01:18:05.831Z,12.96
2022-10-01T01:20:47.479Z,12.92
2022-10-01T01:23:44.754Z,12.93
2022-10-01T01:26:22.464Z,12.89
2022-10-01T01:28:56.031Z,12.85
2022-10-01T01:31:29.573Z,12.90
2022-10-01T01:34:00.795Z,12.84
2022-10-01T01:36:32.946Z,12.81
2022-10-01T01:39:05.127Z,12.88
2022-10-01T01:41:37.661Z,12.90
2022-10-01T01:44:12.945Z,12.91
2022-10-01T01:46:45.097Z,12.92
2022-10-01T01:49:17.860Z,12.97
2022-10-01T01:51:50.807Z,12.91
2022-10-01T01:54:20.725Z,12.92
2022-10-01T01:56:51.708Z,12.97
2022-10-01T01:59:24.113Z,13.01
2022-10-01T02:01:53.923Z,12.97
2022-10-01T02:04:25.737Z,12.99
2022-10-01T02:07:15.340Z,12.97
2022-10-01T02:09:52.307Z,13.00
2022-10-01T02:12:30.500Z,12.99
2022-10-01T02:15:06.981Z,13.05
2022-10-01T02:17:42.623Z,13.08
2022-10-01T02:20:18.421Z,13.05
2022-10-01T02:22:52.978Z,13.04
2022-10-01T02:25:27.118Z,13.01
2022-10-01T02:28:01.701Z,12.96
2022-10-01T02:30:39.773Z,12.93
2022-10-01T02:33:14.256Z,12.94
2022-10-01T02:35:46.116Z,13.02
2022-10-01T02:38:17.846Z,13.02
2022-10-01T02:40:49.158Z,12.97
2022-10-01T02:43:21.695Z,12.99
2022-10-01T02:45:58.737Z,12.97
2022-10-01T02:48:29.070Z,12.96
2022-10-01T02:51:09.562Z,12.92
2022-10-01T02:53:44.615Z,12.97
2022-10-01T02:56:35.769Z,12.99
2022-10-01T02:59:02.980Z,12.93
2022-10-01T03:01:36.486Z,12.92
2022-10-01T03:04:06.499Z,12.98
2022-10-01T03:06:39.626Z,12.98
2022-10-01T03:09:16.603Z,12.99
2022-10-01T03:11:58.676Z,13.04
2022-10-01T03:14:30.943Z,13.02
2022-10-01T03:17:06.535Z,13.01
2022-10-01T03:19:43.355Z,13.00
2022-10-01T03:22:20.134Z,13.01
2022-10-01T03:24:51.336Z,12.99
2022-10-01T03:27:24.937Z,12.99
2022-10-01T03:29:55.941Z,13.03
2022-10-01T03:32:42.129Z,13.02
2022-10-01T03:35:13.150Z,13.00
2022-10-01T03:37:47.417Z,13.02
2022-10-01T03:40:21.584Z,13.04
2022-10-01T03:42:52.662Z,13.04
2022-10-01T03:45:24.949Z,13.08
2022-10-01T03:48:05.303Z,13.05
2022-10-01T03:50:36.855Z,13.06
2022-10-01T03:53:08.788Z,13.08
2022-10-01T03:55:38.625Z,13.05
2022-10-01T03:58:16.270Z,13.06
2022-10-01T04:00:56.011Z,13.05
2022-10-01T04:03:44.772Z,13.07
2022-10-01T04:06:17.189Z,12.99
2022-10-01T04:08:49.694Z,13.01
2022-10-01T04:11:19.819Z,13.04
2022-10-01T04:13:51.620Z,13.02
2022-10-01T04:16:22.120Z,13.04
2022-10-01T04:18:56.143Z,13.02
2022-10-01T04:21:29.479Z,13.04
2022-10-01T04:24:03.910Z,13.05
2022-10-01T04:26:35.081Z,13.03
2022-10-01T04:29:07.916Z,13.06
2022-10-01T04:31:45.189Z,13.03
2022-10-01T04:34:42.074Z,13.03
2022-10-01T04:37:11.769Z,13.01
2022-10-01T04:39:41.579Z,13.02
2022-10-01T04:42:13.489Z,13.04
2022-10-01T04:44:43.619Z,13.03
2022-10-01T04:47:14.457Z,13.00
2022-10-01T04:49:47.267Z,13.09
2022-10-01T04:52:17.424Z,13.03
2022-10-01T04:54:48.387Z,13.05
2022-10-01T04:57:21.855Z,13.04
2022-10-01T04:59:51.760Z,13.04
2022-10-01T05:02:23.514Z,13.03
2022-10-01T05:04:56.611Z,13.07
2022-10-01T05:07:27.121Z,13.07
2022-10-01T05:09:57.170Z,13.10
2022-10-01T05:12:27.429Z,13.09
2022-10-01T05:15:00.333Z,13.10
2022-10-01T05:17:38.672Z,13.07
2022-10-01T05:20:13.823Z,13.08
2022-10-01T05:22:44.839Z,13.13
2022-10-01T05:25:15.189Z,13.11
2022-10-01T05:27:45.349Z,13.04
2022-10-01T05:30:20.666Z,13.09
2022-10-01T05:32:56.952Z,13.11
2022-10-01T05:35:30.107Z,13.13
2022-10-01T05:38:00.544Z,13.12
2022-10-01T05:40:31.092Z,13.11
2022-10-01T05:43:03.776Z,13.13
2022-10-01T05:45:34.252Z,13.12
2022-10-01T05:48:06.951Z,13.13
2022-10-01T05:50:40.425Z,13.15
2022-10-01T05:53:14.125Z,13.17
2022-10-01T05:55:47.139Z,13.20
2022-10-01T05:58:19.593Z,13.20
2022-10-01T06:00:49.433Z,13.20
2022-10-01T06:03:19.177Z,13.21
2022-10-01T06:05:52.086Z,13.21
2022-10-01T06:08:22.044Z,13.26
2022-10-01T06:10:52.376Z,13.24
2022-10-01T06:13:23.710Z,13.33
2022-10-01T06:15:55.423Z,13.31
2022-10-01T06:18:25.457Z,13.31
2022-10-01T06:20:59.880Z,13.33
2022-10-01T06:23:29.915Z,13.34
2022-10-01T06:26:02.378Z,13.36
2022-10-01T06:28:33.278Z,13.34
2022-10-01T06:31:05.258Z,13.33
2022-10-01T06:33:36.321Z,13.35
2022-10-01T06:36:09.782Z,13.37
2022-10-01T06:38:40.815Z,13.42
2022-10-01T06:41:11.284Z,13.43
2022-10-01T06:43:40.984Z,13.51
2022-10-01T06:46:11.338Z,13.52
2022-10-01T06:48:41.535Z,13.59
2022-10-01T06:51:15.560Z,13.62
2022-10-01T06:53:45.231Z,13.65
2022-10-01T06:56:16.488Z,13.70
2022-10-01T06:58:46.187Z,13.72
2022-10-01T07:01:19.966Z,13.73
2022-10-01T07:03:54.292Z,13.78
2022-10-01T07:06:28.775Z,13.81
2022-10-01T07:08:58.967Z,13.83
2022-10-01T07:11:29.350Z,13.87
2022-10-01T07:14:01.221Z,13.94
2022-10-01T07:16:33.747Z,14.01
2022-10-01T07:19:05.631Z,13.97
2022-10-01T07:21:37.937Z,14.00
2022-10-01T07:24:08.026Z,14.01
2022-10-01T07:26:38.854Z,14.01
2022-10-01T07:29:09.075Z,14.05
2022-10-01T07:31:39.094Z,14.09
2022-10-01T07:34:09.878Z,14.17
2022-10-01T07:36:45.559Z,14.32
2022-10-01T07:39:15.890Z,14.40
2022-10-01T07:41:46.272Z,14.48
2022-10-01T07:44:16.937Z,14.46
2022-10-01T07:46:49.096Z,14.43
2022-10-01T07:49:21.179Z,14.48
2022-10-01T07:51:59.114Z,14.46
2022-10-01T07:54:29.131Z,14.47
2022-10-01T07:57:00.609Z,14.48
2022-10-01T07:59:31.365Z,14.55
2022-10-01T08:02:01.239Z,14.54
2022-10-01T08:04:44.286Z,14.58
2022-10-01T08:07:18.273Z,14.61
2022-10-01T08:09:48.234Z,14.72
2022-10-01T08:12:17.954Z,14.80
2022-10-01T08:14:48.114Z,14.87
2022-10-01T08:17:18.125Z,14.93
2022-10-01T08:19:47.832Z,15.05
2022-10-01T08:22:20.288Z,15.28
2022-10-01T08:24:49.916Z,15.43
2022-10-01T08:27:19.713Z,15.55
2022-10-01T08:29:49.398Z,15.66
2022-10-01T08:32:19.082Z,15.72
2022-10-01T08:34:54.503Z,15.77
2022-10-01T08:37:32.171Z,15.85
2022-10-01T08:40:01.850Z,15.89
2022-10-01T08:42:39.350Z,15.98
2022-10-01T08:45:16.698Z,16.02
2022-10-01T08:47:52.306Z,16.10
2022-10-01T08:50:28.084Z,16.15
2022-10-01T08:53:02.957Z,16.31
2022-10-01T08:55:36.901Z,16.36
2022-10-01T08:58:15.748Z,16.38
2022-10-01T09:00:53.113Z,16.48
2022-10-01T09:03:31.696Z,16.51
2022-10-01T09:06:10.200Z,16.61
2022-10-01T09:08:48.684Z,16.82
2022-10-01T09:11:36.074Z,16.85
2022-10-01T09:14:15.311Z,17.05
2022-10-01T09:16:56.424Z,17.07
2022-10-01T09:19:40.955Z,17.16
2022-10-01T09:22:14.464Z,17.00
2022-10-01T09:24:50.159Z,17.12
2022-10-01T09:27:21.904Z,17.16
2022-10-01T09:29:54.195Z,17.19
2022-10-01T09:32:27.996Z,16.98
2022-10-01T09:35:04.440Z,17.02
2022-10-01T09:37:41.329Z,17.00
2022-10-01T09:40:17.540Z,17.04
2022-10-01T09:42:48.298Z,17.14
2022-10-01T09:45:19.505Z,17.15
2022-10-01T09:47:52.725Z,17.28
2022-10-01T09:50:26.405Z,17.36
2022-10-01T09:52:57.623Z,17.36
2022-10-01T09:55:35.019Z,17.56
2022-10-01T09:58:07.753Z,17.78
2022-10-01T10:00:41.141Z,18.03
2022-10-01T10:03:14.195Z,18.21
2022-10-01T10:05:49.610Z,18.38
2022-10-01T10:08:26.240Z,18.43
2022-10-01T10:11:01.701Z,18.70
2022-10-01T10:13:35.462Z,18.91
2022-10-01T10:16:13.708Z,18.99
2022-10-01T10:18:45.194Z,18.91
2022-10-01T10:21:19.533Z,18.94
2022-10-01T10:23:52.179Z,18.85
2022-10-01T10:26:29.880Z,18.74
2022-10-01T10:29:01.919Z,18.75
2022-10-01T10:31:32.970Z,18.94
2022-10-01T10:34:11.814Z,18.94
2022-10-01T10:36:42.335Z,19.00
2022-10-01T10:39:20.716Z,18.98
2022-10-01T10:41:56.218Z,19.20
2022-10-01T10:44:30.395Z,19.12
2022-10-01T10:47:02.958Z,19.45
2022-10-01T10:49:36.550Z,19.59
2022-10-01T10:52:20.647Z,19.53
2022-10-01T10:54:51.607Z,19.28
2022-10-01T10:57:28.024Z,19.17
2022-10-01T10:59:58.485Z,19.25
2022-10-01T11:02:30.559Z,19.48
2022-10-01T11:05:02.239Z,19.94
2022-10-01T11:07:32.499Z,20.39
2022-10-01T11:10:27.053Z,20.65
2022-10-01T11:13:14.960Z,20.49
2022-10-01T11:15:51.641Z,20.14
2022-10-01T11:18:41.146Z,19.83
2022-10-01T11:21:25.301Z,19.99
2022-10-01T11:24:14.388Z,19.99
2022-10-01T11:26:53.505Z,20.26
2022-10-01T11:29:33.653Z,20.36
2022-10-01T11:32:10.785Z,20.27
2022-10-01T11:34:50.689Z,20.81
2022-10-01T11:37:30.488Z,21.01
2022-10-01T11:40:07.524Z,21.06
2022-10-01T11:42:39.953Z,21.21
2022-10-01T11:45:21.593Z,21.11
2022-10-01T11:47:55.343Z,21.20
2022-10-01T11:50:26.560Z,21.56
2022-10-01T11:52:59.883Z,21.59
2022-10-01T11:55:45.747Z,21.72
2022-10-01T11:58:30.698Z,21.81
2022-10-01T12:01:06.418Z,22.14
2022-10-01T12:03:41.180Z,22.17
2022-10-01T12:06:15.380Z,21.79
2022-10-01T12:08:51.225Z,21.45
2022-10-01T12:11:24.410Z,21.29
2022-10-01T12:13:59.493Z,21.15
2022-10-01T12:16:43.172Z,21.20
2022-10-01T12:19:17.618Z,21.41
2022-10-01T12:21:50.677Z,21.97
2022-10-01T12:24:23.782Z,22.21
2022-10-01T12:27:00.192Z,22.04
2022-10-01T12:29:35.991Z,21.81
2022-10-01T12:32:16.309Z,21.67
2022-10-01T12:34:54.374Z,22.14
2022-10-01T12:37:33.430Z,22.28
2022-10-01T12:40:18.416Z,22.27
2022-10-01T12:43:06.800Z,22.11
2022-10-01T12:45:47.248Z,21.71
2022-10-01T12:48:24.134Z,22.04
2022-10-01T12:50:58.266Z,22.30
2022-10-01T12:53:36.352Z,22.47
2022-10-01T12:56:16.059Z,22.30
2022-10-01T12:58:52.837Z,22.56
2022-10-01T13:01:34.542Z,22.04
2022-10-01T13:04:19.985Z,21.86
2022-10-01T13:06:59.309Z,21.58
2022-10-01T13:09:35.417Z,21.66
2022-10-01T13:12:15.585Z,21.89
2022-10-01T13:14:47.078Z,22.01
2022-10-01T13:17:21.623Z,21.65
2022-10-01T13:19:55.104Z,21.11
2022-10-01T13:22:34.043Z,21.18
2022-10-01T13:25:17.910Z,20.89
2022-10-01T13:27:52.139Z,20.64
2022-10-01T13:30:25.893Z,20.56
2022-10-01T13:32:58.315Z,19.94
2022-10-01T13:35:35.438Z,19.55
2022-10-01T13:38:20.143Z,19.14
2022-10-01T13:41:00.292Z,18.85
2022-10-01T13:43:32.120Z,18.92
2022-10-01T13:46:12.697Z,18.77
2022-10-01T13:48:48.237Z,18.36
2022-10-01T13:51:19.550Z,18.35
2022-10-01T13:54:00.687Z,18.12
2022-10-01T13:56:33.065Z,18.36
2022-10-01T13:59:03.153Z,18.47
2022-10-01T14:01:34.271Z,18.57
2022-10-01T14:04:11.087Z,18.71
2022-10-01T14:06:42.518Z,18.80
2022-10-01T14:09:22.365Z,19.07
2022-10-01T14:12:09.843Z,19.36
2022-10-01T14:14:55.431Z,19.34
2022-10-01T14:17:29.154Z,19.22
2022-10-01T14:20:00.458Z,19.02
2022-10-01T14:22:47.605Z,19.20
2022-10-01T14:25:25.838Z,19.16
2022-10-01T14:28:06.513Z,18.90
2022-10-01T14:30:41.742Z,18.81
2022-10-01T14:33:19.534Z,18.93
2022-10-01T14:35:56.754Z,19.16
2022-10-01T14:38:28.141Z,19.29
2022-10-01T14:41:02.128Z,19.21
2022-10-01T14:43:32.931Z,19.24
2022-10-01T14:46:03.710Z,19.24
2022-10-01T14:48:36.819Z,19.12
2022-10-01T14:51:11.668Z,19.03
2022-10-01T14:53:46.399Z,18.95
2022-10-01T14:56:21.728Z,18.93
2022-10-01T14:58:56.428Z,18.98
2022-10-01T15:01:28.420Z,18.99
2022-10-01T15:04:01.302Z,18.93
2022-10-01T15:06:32.923Z,18.90
2022-10-01T15:09:20.916Z,18.87
2022-10-01T15:11:54.341Z,18.74
2022-10-01T15:14:28.407Z,18.69
2022-10-01T15:16:59.671Z,18.52
2022-10-01T15:19:29.707Z,18.35
2022-10-01T15:22:02.429Z,18.25
2022-10-01T15:24:39.870Z,18.21
2022-10-01T15:27:24.846Z,18.25
2022-10-01T15:29:56.830Z,17.81
2022-10-01T15:32:28.463Z,17.92
2022-10-01T15:35:00.558Z,17.63
2022-10-01T15:37:33.221Z,17.57
2022-10-01T15:40:04.215Z,17.39
2022-10-01T15:42:38.478Z,17.33
2022-10-01T15:45:24.691Z,17.29
2022-10-01T15:47:57.287Z,17.09
2022-10-01T15:50:28.487Z,17.05
2022-10-01T15:53:04.070Z,17.16
2022-10-01T15:55:35.658Z,16.82
2022-10-01T15:58:14.404Z,16.90
2022-10-01T16:00:56.972Z,16.84
2022-10-01T16:03:29.348Z,16.68
2022-10-01T16:06:01.969Z,16.44
2022-10-01T16:08:35.650Z,16.36
2022-10-01T16:11:18.810Z,16.35
2022-10-01T16:13:53.008Z,16.24
2022-10-01T16:16:25.268Z,16.17
2022-10-01T16:19:00.494Z,16.08
2022-10-01T16:21:31.434Z,16.06
2022-10-01T16:24:03.324Z,15.92
2022-10-01T16:26:42.233Z,16.04
2022-10-01T16:29:25.707Z,15.89
2022-10-01T16:31:56.616Z,15.87
2022-10-01T16:34:29.553Z,15.78
2022-10-01T16:37:01.542Z,15.62
2022-10-01T16:39:32.544Z,15.53
2022-10-01T16:42:22.947Z,15.45
2022-10-01T16:44:57.063Z,15.27
2022-10-01T16:47:28.583Z,15.28
2022-10-01T16:49:59.363Z,15.22
2022-10-01T16:52:29.718Z,15.11
2022-10-01T16:55:00.655Z,15.05
2022-10-01T16:57:32.694Z,15.09
2022-10-01T17:00:06.848Z,15.39
2022-10-01T17:02:37.729Z,15.28
2022-10-01T17:05:09.033Z,15.15
2022-10-01T17:07:41.804Z,15.38
2022-10-01T17:10:11.551Z,15.15
2022-10-01T17:12:43.078Z,14.96
2022-10-01T17:15:18.905Z,15.14
2022-10-01T17:17:50.291Z,14.95
2022-10-01T17:20:22.263Z,15.06
2022-10-01T17:22:52.403Z,15.03
2022-10-01T17:25:23.229Z,15.26
2022-10-01T17:27:55.055Z,15.01
2022-10-01T17:30:30.415Z,15.04
2022-10-01T17:33:02.245Z,14.88
2022-10-01T17:35:32.638Z,14.76
2022-10-01T17:38:03.418Z,14.71
2022-10-01T17:40:34.589Z,14.67
2022-10-01T17:43:08.123Z,14.82
2022-10-01T17:45:42.519Z,14.68
2022-10-01T17:48:13.122Z,14.77
2022-10-01T17:50:46.664Z,14.61
2022-10-01T17:53:17.853Z,14.50
2022-10-01T17:55:48.575Z,14.57
2022-10-01T17:58:18.646Z,14.61
2022-10-01T18:00:54.263Z,14.60
2022-10-01T18:03:25.754Z,14.57
2022-10-01T18:06:02.728Z,14.45
2022-10-01T18:08:54.174Z,14.46
2022-10-01T18:11:24.436Z,14.47
2022-10-01T18:13:55.398Z,14.28
2022-10-01T18:16:28.479Z,14.32
2022-10-01T18:21:51.253Z,14.27
2022-10-01T18:24:21.675Z,14.15
2022-10-01T18:26:52.877Z,14.40
2022-10-01T18:29:24.486Z,14.07
2022-10-01T18:32:02.123Z,14.01
2022-10-01T18:34:35.686Z,14.08
2022-10-01T18:37:08.900Z,13.96
2022-10-01T18:39:41.753Z,13.95
2022-10-01T18:42:18.376Z,13.91
2022-10-01T18:44:49.131Z,13.97
2022-10-01T18:47:27.969Z,14.00
2022-10-01T18:50:09.977Z,14.03
2022-10-01T18:52:47.517Z,14.03
2022-10-01T18:55:27.343Z,13.96
2022-10-01T18:58:22.263Z,13.89
2022-10-01T19:00:56.177Z,13.76
2022-10-01T19:03:39.037Z,13.62
2022-10-01T19:06:18.252Z,13.52
2022-10-01T19:08:56.848Z,13.48
2022-10-01T19:11:30.612Z,13.49
2022-10-01T19:14:06.570Z,13.48
2022-10-01T19:16:43.999Z,13.51
2022-10-01T19:19:24.344Z,13.57
2022-10-01T19:21:59.154Z,13.56
2022-10-01T19:24:36.553Z,13.58
2022-10-01T19:27:18.035Z,13.52
2022-10-01T19:30:03.435Z,13.43
2022-10-01T19:32:38.844Z,13.46
2022-10-01T19:35:16.049Z,13.62
2022-10-01T19:37:51.040Z,13.62
2022-10-01T19:40:25.622Z,13.71
2022-10-01T19:42:59.496Z,13.73
2022-10-01T19:45:34.355Z,13.52
2022-10-01T19:48:10.356Z,13.50
2022-10-01T19:50:46.620Z,13.52
2022-10-01T19:53:23.763Z,13.56
2022-10-01T19:55:55.333Z,13.49
2022-10-01T19:58:27.256Z,13.55
2022-10-01T20:00:59.742Z,13.62
2022-10-01T20:03:36.942Z,13.40
2022-10-01T20:06:16.563Z,13.33
2022-10-01T20:08:53.197Z,13.31
2022-10-01T20:11:27.985Z,13.31
2022-10-01T20:14:11.143Z,13.32
2022-10-01T20:16:49.574Z,13.42
2022-10-01T20:19:23.356Z,13.36
2022-10-01T20:22:02.952Z,13.40
2022-10-01T20:24:43.719Z,13.16
2022-10-01T20:27:22.203Z,13.23
2022-10-01T20:29:55.839Z,13.10
2022-10-01T20:32:31.550Z,13.25
2022-10-01T20:35:10.586Z,12.99
2022-10-01T20:37:58.817Z,13.15
2022-10-01T20:40:31.013Z,13.22
2022-10-01T20:43:05.957Z,13.17
2022-10-01T20:45:37.198Z,13.20
2022-10-01T20:48:14.258Z,13.24
2022-10-01T20:50:50.698Z,13.13
2022-10-01T20:53:32.189Z,13.21
2022-10-01T20:56:05.447Z,13.06
2022-10-01T20:58:38.323Z,13.04
2022-10-01T21:01:13.212Z,13.05
2022-10-01T21:03:49.970Z,13.08
2022-10-01T21:06:25.763Z,13.14
2022-10-01T21:09:00.915Z,13.01
2022-10-01T21:11:34.433Z,13.02
2022-10-01T21:14:09.795Z,13.02
2022-10-01T21:16:55.243Z,13.02
2022-10-01T21:19:32.069Z,12.98
2022-10-01T21:22:08.741Z,13.08
2022-10-01T21:24:56.585Z,13.00
2022-10-01T21:27:44.016Z,12.99
2022-10-01T21:30:18.833Z,12.90
2022-10-01T21:33:09.325Z,12.89
2022-10-01T21:35:53.516Z,12.97
2022-10-01T21:38:29.025Z,12.75
2022-10-01T21:41:16.832Z,12.87
2022-10-01T21:44:01.941Z,12.80
2022-10-01T21:46:35.888Z,12.81
2022-10-01T21:49:11.483Z,12.73
2022-10-01T21:51:58.677Z,12.80
2022-10-01T21:54:52.729Z,12.75
2022-10-01T21:57:35.138Z,12.78
2022-10-01T22:00:12.981Z,12.72
2022-10-01T22:02:49.039Z,12.86
2022-10-01T22:05:24.768Z,12.75
2022-10-01T22:08:00.686Z,12.60
2022-10-01T22:10:34.135Z,12.61
2022-10-01T22:13:07.549Z,12.66
2022-10-01T22:15:43.934Z,12.60
2022-10-01T22:18:17.796Z,12.70
2022-10-01T22:20:49.760Z,12.73
2022-10-01T22:23:21.480Z,12.68
2022-10-01T22:25:54.842Z,12.62
2022-10-01T22:28:28.432Z,12.58
2022-10-01T22:31:03.941Z,12.55
2022-10-01T22:33:38.549Z,12.49
2022-10-01T22:36:12.297Z,12.57
2022-10-01T22:38:45.301Z,12.60
2022-10-01T22:41:20.924Z,12.49
2022-10-01T22:43:51.850Z,12.55
2022-10-01T22:46:43.001Z,12.43
2022-10-01T22:49:19.339Z,12.46
2022-10-01T22:51:57.068Z,12.41
2022-10-01T22:54:37.800Z,12.40
2022-10-01T22:57:16.667Z,12.33
2022-10-01T22:59:52.680Z,12.30
2022-10-01T23:02:32.632Z,12.41
2022-10-01T23:05:09.286Z,12.30
2022-10-01T23:07:45.873Z,12.33
2022-10-01T23:10:20.703Z,12.20
2022-10-01T23:12:58.001Z,12.05
2022-10-01T23:15:35.719Z,12.16
2022-10-01T23:18:16.971Z,12.02
2022-10-01T23:20:53.610Z,12.14
2022-10-01T23:23:33.030Z,12.16
2022-10-01T23:26:14.483Z,12.11
2022-10-01T23:28:52.535Z,12.04
2022-10-01T23:31:28.455Z,12.00
2022-10-01T23:34:10.910Z,12.01
2022-10-01T23:36:45.521Z,11.85
2022-10-01T23:39:25.966Z,11.92
2022-10-01T23:41:59.490Z,11.81
2022-10-01T23:44:36.495Z,11.79
2022-10-01T23:47:10.149Z,11.81
2022-10-01T23:49:50.987Z,11.87
2022-10-01T23:52:22.561Z,11.96
2022-10-01T23:54:57.385Z,11.94
2022-10-01T23:57:29.429Z,11.94
